Klamath Falls Airport
KLMT : now visible

Airfield :











YOU CAN JOIN US ON...

 
LOGIN :

Register | Disclaimer

   EN    FR    IT 

 









Legend :    VFR   Marginal VFR   IFR   Intensive IFR   Very Intensive IFR
Visi :
Ceiling :
>= 8 km
>= 3000ft
5 to 8 km
1000 to 3000 ft
1500m to 5 km
500 to 1000 ft
800 to 1500m
200 to 500 ft
< 800m
< 200 ft
Symbols :   Thunderstorms  Fog  Heavy snow  Heavy precipitations  Wind > 20 kt







- Airport Elevation : 4095 ft
- IATA code : LMT


KLMT - Klamath Falls

CURRENT METAR :
  • 210953Z AUTO 18003KT 10SM FEW034 BKN041 OVC100 04/02 A2970 RMK AO2 SLP041 T00390017

EXPIRED METARs :
  • 210853Z AUTO 22003KT 10SM FEW031 SCT110 04/02 A2971 RMK AO2 RAE20 SLP044 P0005 60008 T00390017 56006
  • 210824Z AUTO 24003KT 10SM FEW018 BKN030 OVC085 04/03 A2971 RMK AO2 RAE20 P0005 T00390028
  • 210753Z AUTO 21011KT 7SM RA BKN023 BKN028 OVC040 06/02 A2972 RMK AO2 RAB28 SLP048 P0003 T00560022 401560033
  • 210750Z AUTO 21010G15KT 7SM RA BKN025 OVC038 06/03 A2971 RMK AO2 RAB28 P0003

TAF KLMT
Valid from the 21 at 08:00 until the 22 at 06:00 UTC


210808Z 2108/2206 24012KT P6SM -SHRA BKN025 OVC040
FM212200 28010KT P6SM -SHRA SCT020 OVC040
FM220500 VRB03KT P6SM SCT020 BKN040
KZSE FIR / North America



MET'MAP, your aeronautical weather chart ! - Copyright ORBIFLY December 2007 - Disclaimer

ORBIFLY MET'MAP TEAM :

Programming & Development : Alexandra Zaïnal
Concept & Development : Baudouin d'Aumeries
Co-Development & Prog : Marc-Olivier Méhu
Technical & hardware support : Manuel Goepfert

Contact : metmap@orbifly.com




SOURCES & CREDITS :

   NOAA       Earth
Advisory